LLSDLLHA

Guest
Details From LLSD - Sde Dov
To LLHA - Haifa
Flight Number -
Tags generated
Created
Modified
Stats Distance 45 nm / 83 km
Max Altitude 2,000 ft / 610 m
Waypoints 3
Social Downloads 4
Likes 0
Share VATSIM

Download

Looking for another format? Having issues loading an existing format? Contact us
Advertisement - Login to hide

Notes

Basic altitude profile: - Ascent Rate: 2500ft/min - Ascent Speed: 250kts - Cruise Altitude: 35000ft - Cruise Speed: 420kts - Descent Rate: 1500ft/min - Descent Speed: 250kts Options: - Use NATs: yes - Use PACOTS: yes - Use low airways: yes - Use high airways: yes

Route

LLSD ATLIT LLHA

ID Type Via Altitude Latitude Longitude Leg Dist Tot Dist Heading (true) Name
O LLSD APT - 0 ft / 0 m 32.11466˚ 34.78224˚ - 0 nm - Sde Dov
ATLIT FIX - 2,000 ft / 610 m 32.69646˚ 34.91495˚ 35 nm 35 nm 11° / 11° -
O LLHA APT - 0 ft / 0 m 32.81113˚ 35.04414˚ 9 nm 45 nm 43° / 43° Haifa

Altitude Profile

Advertisement - Login to hide

LLSD

Details ICAO LLSD (SDV)
Name Sde Dov
Region Israel
Timezone Asia/Jerusalem (UTC+3.0)
Stats Elevation 43 ft / 13 m (AMSL)
Location 32.114661° 34.782238°
Runways 1
Magnetic Variation 4.734° E

METAR

Not found

TAF

TAF LLSD 272328Z 2800/2824 36005KT 9999 SCT017 BECMG 2807/2809 34014KT CAVOK BECMG 2816/2818 05005KT 9999 SCT017 TX26/2811Z TN22/2803Z

Decode

Departure Runways

ID Width Length Bearing (true) Bearing (mag) Surface Threshold Offset Overrun Length
03 98 ft / 30 m 5,704 ft / 1,738 m 27.61° 22.88° Asphalt 341 ft / 104 m 0 ft / 0 m
21 98 ft / 30 m 5,704 ft / 1,738 m 207.61° 202.88° Asphalt 230 ft / 70 m 0 ft / 0 m

LLHA

Details ICAO LLHA (HFA)
Name Haifa
Region Israel
Timezone Asia/Jerusalem (UTC+3.0)
Stats Elevation 28 ft / 9 m (AMSL)
Location 32.811125° 35.044139°
Runways 1
Magnetic Variation 4.819° E

METAR

Not found

TAF

TAF LLHA 272329Z 2800/2824 33005KT 9999 SCT018 BECMG 2807/2809 33012KT CAVOK BECMG 2816/2818 33005KT 9999 SCT018 TX26/2811Z TN22/2803Z

Decode

Destination Runways

ID Width Length Bearing (true) Bearing (mag) Surface Threshold Offset Overrun Length
16 98 ft / 30 m 4,161 ft / 1,268 m 158.88° 154.06° Asphalt 164 ft / 50 m 0 ft / 0 m
34 98 ft / 30 m 4,161 ft / 1,268 m 338.88° 334.06° Asphalt 380 ft / 116 m 90 ft / 27 m

Popular Alternatives